Time;durP1;ratioP1;P1;durP2;ratioP2;P2;SDS_P1;SDS_P2;PMS_P1;PMS_P2;Temp;Humidity;BMP_temperature;BMP_pressure;BME280_temperature;BME280_humidity;BME280_pressure;Samples;Min_cycle;Max_cycle;Signal;HPM_P1;HPM_P2
2021/01/13 00:03:54;;;;;;;5.77;1.50;;;;;;;0.48;100.00;97790.36;3698637;79;44046;-15
2021/01/13 00:09:01;;;;;;;9.33;1.53;;;;;;;0.63;100.00;97787.05;3714374;79;44083;-16
2021/01/13 00:14:07;;;;;;;7.67;2.20;;;;;;;0.56;100.00;97788.48;3674257;80;43671;-16
2021/01/13 00:19:13;;;;;;;8.03;1.50;;;;;;;0.69;100.00;97795.02;3669471;80;44004;-16
2021/01/13 00:24:20;;;;;;;5.27;1.70;;;;;;;0.69;100.00;97805.16;3672131;80;44078;-16
2021/01/13 00:29:26;;;;;;;9.57;2.00;;;;;;;0.70;100.00;97791.42;3672104;80;43681;-16
2021/01/13 00:34:32;;;;;;;5.03;1.80;;;;;;;0.68;100.00;97815.86;3669665;80;44075;-16
2021/01/13 00:39:38;;;;;;;6.37;1.60;;;;;;;0.68;100.00;97819.84;3689574;79;43327;-16
2021/01/13 00:44:45;;;;;;;7.20;1.70;;;;;;;0.68;100.00;97826.01;3693385;80;43776;-16
2021/01/13 00:49:50;;;;;;;4.40;1.77;;;;;;;0.60;100.00;97809.34;3693713;80;44034;-16
2021/01/13 00:54:56;;;;;;;6.87;1.50;;;;;;;0.52;100.00;97806.88;3693445;80;44101;-16
2021/01/13 01:00:08;;;;;;;9.50;1.70;;;;;;;0.38;100.00;97814.53;3694579;80;44081;-16
2021/01/13 01:05:15;;;;;;;6.43;1.87;;;;;;;0.37;100.00;97819.45;3693657;80;43661;-16
2021/01/13 01:10:23;;;;;;;12.03;2.07;;;;;;;0.34;100.00;97822.32;3695985;79;43261;-16
2021/01/13 01:15:29;;;;;;;5.83;1.57;;;;;;;0.41;100.00;97829.72;3696229;80;43388;-16
2021/01/13 01:20:35;;;;;;;3.90;1.27;;;;;;;0.51;100.00;97840.97;3693959;80;43705;-16
2021/01/13 01:25:40;;;;;;;6.20;1.60;;;;;;;0.52;100.00;97842.20;3693717;80;43689;-16
2021/01/13 01:30:47;;;;;;;5.53;1.70;;;;;;;0.55;100.00;97844.60;3692494;80;43464;-16
2021/01/13 01:35:53;;;;;;;6.03;1.50;;;;;;;0.54;100.00;97850.03;3694163;80;44113;-16
2021/01/13 01:41:05;;;;;;;3.80;1.40;;;;;;;0.60;100.00;97841.61;3703028;79;44729;-15
2021/01/13 01:46:12;;;;;;;7.13;1.57;;;;;;;0.50;100.00;97844.11;3742030;79;43389;-16
2021/01/13 01:51:22;;;;;;;8.87;1.67;;;;;;;0.47;100.00;97856.25;3637571;81;44026;-16
2021/01/13 01:56:31;;;;;;;6.40;1.60;;;;;;;0.39;100.00;97845.38;3653445;80;44053;-16
2021/01/13 02:01:39;;;;;;;7.23;2.00;;;;;;;0.29;100.00;97849.16;3662854;80;43286;-17
2021/01/13 02:07:03;;;;;;;8.00;1.90;;;;;;;0.26;100.00;97846.26;3661688;80;43447;-16
2021/01/13 02:12:13;;;;;;;7.43;1.77;;;;;;;0.40;100.00;97856.34;3658069;80;43369;-17
2021/01/13 02:17:23;;;;;;;9.87;1.33;;;;;;;0.39;100.00;97842.23;3700497;80;43728;-16
2021/01/13 02:22:33;;;;;;;10.17;2.03;;;;;;;0.42;100.00;97851.75;3658683;81;43431;-16
2021/01/13 02:27:55;;;;;;;9.67;1.80;;;;;;;0.49;100.00;97847.71;3658661;80;44065;-16
2021/01/13 02:33:04;;;;;;;5.50;1.20;;;;;;;0.54;100.00;97846.05;3658855;80;44006;-16
2021/01/13 02:38:12;;;;;;;8.27;2.30;;;;;;;0.65;100.00;97848.76;3660983;81;44176;-16
2021/01/13 02:43:22;;;;;;;4.87;1.60;;;;;;;0.67;100.00;97859.23;3662174;81;43436;-16
2021/01/13 02:48:31;;;;;;;10.67;2.33;;;;;;;0.72;100.00;97864.56;3660334;80;44203;-16
2021/01/13 02:53:57;;;;;;;3.63;1.20;;;;;;;0.68;100.00;97858.28;3658706;81;44089;-16
2021/01/13 02:59:11;;;;;;;4.13;1.13;;;;;;;0.72;100.00;97864.56;3651491;80;43708;-15
2021/01/13 03:04:18;;;;;;;6.33;1.60;;;;;;;0.79;100.00;97862.80;3639131;81;44254;-16
2021/01/13 03:09:24;;;;;;;3.13;1.20;;;;;;;0.71;100.00;97865.52;3651401;81;44033;-16
2021/01/13 03:14:33;;;;;;;4.97;1.57;;;;;;;0.74;100.00;97864.47;3658975;81;43479;-16
2021/01/13 03:19:57;;;;;;;7.27;1.40;;;;;;;0.70;100.00;97877.11;3660478;80;44861;-15
2021/01/13 03:25:06;;;;;;;5.67;1.73;;;;;;;0.70;100.00;97866.97;3662314;80;44078;-16
2021/01/13 03:30:17;;;;;;;4.50;1.10;;;;;;;0.72;100.00;97871.20;3659528;81;43999;-16
2021/01/13 03:35:26;;;;;;;4.10;1.23;;;;;;;0.70;100.00;97884.20;3659290;81;43457;-16
2021/01/13 03:40:36;;;;;;;6.03;1.50;;;;;;;0.68;100.00;97874.19;3662418;80;43432;-15
2021/01/13 03:45:44;;;;;;;6.47;1.20;;;;;;;0.73;100.00;97868.91;3659049;81;44049;-16
2021/01/13 03:50:52;;;;;;;6.97;1.73;;;;;;;0.73;100.00;97872.89;3682476;80;43292;-16
2021/01/13 03:55:59;;;;;;;4.83;1.20;;;;;;;0.73;100.00;97874.22;3699892;80;44038;-16
2021/01/13 04:01:15;;;;;;;8.57;2.13;;;;;;;0.78;100.00;97872.55;3697459;80;43348;-16
2021/01/13 04:06:24;;;;;;;5.80;1.23;;;;;;;0.82;100.00;97874.52;3706775;80;43386;-16
2021/01/13 04:11:32;;;;;;;5.93;1.73;;;;;;;0.77;100.00;97861.58;3715790;80;43735;-16
2021/01/13 04:16:40;;;;;;;5.60;1.30;;;;;;;0.89;100.00;97885.03;3715802;80;43462;-16
2021/01/13 04:21:47;;;;;;;5.87;1.43;;;;;;;0.89;100.00;97881.87;3716853;79;43583;-17
2021/01/13 04:26:54;;;;;;;5.63;1.33;;;;;;;0.82;100.00;97890.43;3718400;80;44296;-17
2021/01/13 04:32:01;;;;;;;5.57;1.50;;;;;;;0.80;100.00;97886.55;3715540;80;44014;-17
2021/01/13 04:37:09;;;;;;;4.67;1.40;;;;;;;0.79;100.00;97871.59;3718935;80;44053;-17
2021/01/13 04:42:19;;;;;;;5.03;1.43;;;;;;;0.82;100.00;97885.95;3719401;80;44023;-18
2021/01/13 04:47:27;;;;;;;6.00;1.20;;;;;;;0.82;100.00;97874.03;3682728;80;43342;-18
2021/01/13 04:52:36;;;;;;;7.80;1.43;;;;;;;0.79;100.00;97886.17;3714676;79;44106;-17
2021/01/13 04:58:37;;;;;;;4.40;1.30;;;;;;;0.89;100.00;97880.55;3728800;79;43367;-18
2021/01/13 05:03:46;;;;;;;6.10;1.27;;;;;;;0.83;100.00;97885.00;3535252;82;43776;-18
2021/01/13 05:08:55;;;;;;;5.63;1.90;;;;;;;0.81;100.00;97904.15;3616736;81;43337;-18
2021/01/13 05:14:03;;;;;;;5.30;1.40;;;;;;;0.86;100.00;97877.29;3629315;81;44033;-18
2021/01/13 05:19:11;;;;;;;9.00;1.40;;;;;;;0.83;100.00;97863.78;3659774;81;42705;-17
2021/01/13 05:24:19;;;;;;;4.63;1.50;;;;;;;0.78;100.00;97855.31;3657201;79;44516;-17
2021/01/13 05:29:37;;;;;;;4.10;1.70;;;;;;;0.89;100.00;97858.51;3629585;80;44073;-17
2021/01/13 05:34:45;;;;;;;3.30;1.47;;;;;;;0.82;100.00;97859.94;3613363;81;44062;-17
2021/01/13 05:39:51;;;;;;;7.30;1.17;;;;;;;0.84;100.00;97856.20;3660127;81;44035;-18
2021/01/13 05:45:00;;;;;;;5.87;1.30;;;;;;;0.83;100.00;97875.72;3654716;79;44036;-17
2021/01/13 05:50:09;;;;;;;8.03;1.53;;;;;;;0.75;100.00;97855.07;3628696;79;43004;-17
2021/01/13 05:55:17;;;;;;;8.93;3.30;;;;;;;0.73;100.00;97858.80;3659374;81;43705;-17
2021/01/13 06:00:26;;;;;;;5.13;1.53;;;;;;;0.69;100.00;97856.00;3714143;79;43983;-18
2021/01/13 06:05:34;;;;;;;5.47;1.13;;;;;;;0.58;100.00;97851.50;3759786;79;44026;-18
2021/01/13 06:10:41;;;;;;;6.10;1.40;;;;;;;0.53;100.00;97857.11;3718616;80;43716;-18
2021/01/13 06:15:49;;;;;;;5.97;1.57;;;;;;;0.59;100.00;97846.54;3719102;80;43053;-18
2021/01/13 06:20:58;;;;;;;2.90;1.03;;;;;;;0.71;100.00;97848.78;3719632;80;43392;-18
2021/01/13 06:26:06;;;;;;;6.33;1.57;;;;;;;0.69;100.00;97858.65;3719833;80;42820;-18
2021/01/13 06:31:16;;;;;;;5.57;1.67;;;;;;;0.71;100.00;97865.52;3719448;79;44046;-18
2021/01/13 06:36:34;;;;;;;8.53;2.47;;;;;;;0.83;100.00;97854.97;3719727;80;43151;-18
2021/01/13 06:41:50;;;;;;;5.83;1.37;;;;;;;0.81;100.00;97867.03;3717165;80;44638;-18
2021/01/13 06:47:05;;;;;;;9.67;1.50;;;;;;;0.72;100.00;97863.24;3716383;80;43990;-18
2021/01/13 06:52:11;;;;;;;4.17;1.20;;;;;;;0.72;100.00;97874.34;3677644;80;42958;-18
2021/01/13 06:57:21;;;;;;;6.23;1.37;;;;;;;0.73;100.00;97867.59;3670766;80;43791;-18
2021/01/13 07:02:35;;;;;;;4.20;1.27;;;;;;;0.80;100.00;97886.55;3710703;79;43459;-18
2021/01/13 07:07:43;;;;;;;5.50;1.40;;;;;;;0.83;100.00;97875.72;3690654;79;44079;-18
2021/01/13 07:12:51;;;;;;;5.73;1.20;;;;;;;0.75;100.00;97874.13;3669793;80;43995;-18
2021/01/13 07:17:57;;;;;;;3.00;1.10;;;;;;;0.81;100.00;97875.48;3653445;80;43343;-19
2021/01/13 07:23:05;;;;;;;12.17;1.40;;;;;;;0.85;100.00;97868.97;3696536;80;43000;-18
2021/01/13 07:28:12;;;;;;;8.70;1.03;;;;;;;0.82;100.00;97872.70;3658690;80;43440;-18
2021/01/13 07:33:20;;;;;;;7.73;1.83;;;;;;;0.92;100.00;97865.75;3670637;80;43996;-18
2021/01/13 07:38:34;;;;;;;7.63;1.50;;;;;;;0.99;100.00;97875.92;3694323;79;43664;-19
2021/01/13 07:44:13;;;;;;;5.00;1.30;;;;;;;0.94;100.00;97884.22;3669945;80;43337;-18
2021/01/13 07:49:24;;;;;;;5.17;1.20;;;;;;;0.92;100.00;97889.62;3668613;80;43520;-18
2021/01/13 07:54:32;;;;;;;10.90;1.83;;;;;;;0.92;100.00;97882.16;3637686;80;43356;-18
2021/01/13 07:59:43;;;;;;;6.83;1.87;;;;;;;1.01;100.00;97877.48;3663984;79;43328;-18
2021/01/13 08:05:45;;;;;;;3.17;1.30;;;;;;;0.94;100.00;97876.73;3718633;80;43329;-18
2021/01/13 08:10:52;;;;;;;4.10;1.50;;;;;;;1.03;100.00;97883.99;3625900;80;43422;-18
2021/01/13 08:16:34;;;;;;;5.67;1.30;;;;;;;0.89;100.00;97875.25;3663402;80;43595;-18
2021/01/13 08:21:44;;;;;;;4.87;1.67;;;;;;;0.91;100.00;97861.89;3707150;79;43574;-18
2021/01/13 08:26:49;;;;;;;7.30;2.00;;;;;;;0.99;100.00;97869.28;3716160;80;44478;-18
2021/01/13 08:32:07;;;;;;;4.00;1.33;;;;;;;1.06;100.00;97869.18;3715508;80;44046;-19
2021/01/13 08:37:14;;;;;;;7.73;1.60;;;;;;;1.08;100.00;97883.19;3717177;80;43406;-19
2021/01/13 08:42:23;;;;;;;3.93;1.50;;;;;;;1.17;100.00;97885.63;3755088;78;44030;-19
2021/01/13 08:47:30;;;;;;;6.03;1.63;;;;;;;1.11;100.00;97892.70;3715126;80;43698;-19
2021/01/13 08:52:47;;;;;;;4.60;1.80;;;;;;;1.19;100.00;97881.03;3708806;80;44083;-19
2021/01/13 08:58:08;;;;;;;7.70;1.93;;;;;;;1.22;100.00;97880.34;3718559;80;43730;-17
2021/01/13 09:03:21;;;;;;;7.93;1.80;;;;;;;1.20;100.00;97880.94;3655125;80;43692;-18
2021/01/13 09:08:34;;;;;;;5.70;1.63;;;;;;;1.18;100.00;97880.66;3645904;81;44080;-18
2021/01/13 09:13:44;;;;;;;4.40;1.93;;;;;;;1.23;100.00;97875.37;3660070;80;43693;-18
2021/01/13 09:18:55;;;;;;;6.63;2.03;;;;;;;1.23;100.00;97880.69;3658977;81;44002;-18
2021/01/13 09:24:02;;;;;;;3.57;1.87;;;;;;;1.27;100.00;97868.52;3658558;81;42506;-18
2021/01/13 09:29:10;;;;;;;6.60;2.43;;;;;;;1.27;100.00;97865.86;3661481;81;44004;-17
2021/01/13 09:34:31;;;;;;;6.73;2.40;;;;;;;1.35;100.00;97859.02;3659612;81;44027;-18
2021/01/13 09:39:38;;;;;;;4.73;1.47;;;;;;;1.37;100.00;97856.23;3646510;81;43375;-18
2021/01/13 09:44:47;;;;;;;3.80;1.90;;;;;;;1.46;100.00;97871.48;3658331;80;44017;-18
2021/01/13 09:49:55;;;;;;;6.67;1.80;;;;;;;1.46;100.00;97860.86;3658981;80;44104;-18
2021/01/13 09:55:05;;;;;;;3.37;1.83;;;;;;;1.53;100.00;97866.52;3660989;81;44027;-18
2021/01/13 10:00:13;;;;;;;8.63;2.03;;;;;;;1.54;100.00;97869.08;3635945;79;43322;-18
2021/01/13 10:05:20;;;;;;;4.20;1.67;;;;;;;1.56;100.00;97879.56;3631576;80;42903;-18
2021/01/13 10:10:27;;;;;;;2.93;1.60;;;;;;;1.62;100.00;97865.84;3701414;79;44137;-18
2021/01/13 10:15:33;;;;;;;4.40;1.60;;;;;;;1.62;100.00;97876.92;3693817;79;44156;-18
2021/01/13 10:20:40;;;;;;;6.37;1.87;;;;;;;1.66;100.00;97853.98;3660486;80;43705;-18
2021/01/13 10:25:47;;;;;;;3.93;1.87;;;;;;;1.64;100.00;97853.75;3649021;80;43712;-18
2021/01/13 10:30:53;;;;;;;2.07;1.53;;;;;;;1.72;100.00;97865.12;3692850;80;43430;-18
2021/01/13 10:36:01;;;;;;;5.53;1.57;;;;;;;1.77;100.00;97851.84;3692661;80;43753;-18
2021/01/13 10:41:07;;;;;;;2.63;1.50;;;;;;;1.82;100.00;97845.67;3694152;80;43374;-19
2021/01/13 10:46:14;;;;;;;4.07;1.60;;;;;;;1.86;100.00;97835.67;3696132;80;43975;-18
2021/01/13 10:51:23;;;;;;;5.30;1.57;;;;;;;1.81;100.00;97819.24;3738755;79;44448;-18
2021/01/13 10:56:32;;;;;;;5.27;1.63;;;;;;;1.79;100.00;97838.44;3741085;79;43467;-18
2021/01/13 11:01:40;;;;;;;3.40;1.23;;;;;;;1.82;100.00;97821.77;3687909;80;43931;-18
2021/01/13 11:06:47;;;;;;;6.30;1.70;;;;;;;1.85;100.00;97836.14;3662491;81;43296;-18
2021/01/13 11:11:53;;;;;;;4.40;2.00;;;;;;;1.82;100.00;97826.25;3622830;79;43353;-18
2021/01/13 11:17:05;;;;;;;4.77;1.80;;;;;;;1.78;100.00;97831.42;3648989;81;44086;-18
2021/01/13 11:22:12;;;;;;;4.20;1.90;;;;;;;1.74;100.00;97813.56;3697081;80;44059;-18
2021/01/13 11:27:20;;;;;;;2.30;1.40;;;;;;;1.68;100.00;97807.42;3636459;80;44197;-18
2021/01/13 11:32:29;;;;;;;4.83;1.67;;;;;;;1.72;100.00;97800.89;3629032;81;43463;-18
2021/01/13 11:38:16;;;;;;;5.80;2.27;;;;;;;1.84;100.00;97805.73;3616343;81;43489;-18
2021/01/13 11:43:50;;;;;;;5.97;2.00;;;;;;;1.76;100.00;97795.70;3648168;80;44093;-18
2021/01/13 11:49:32;;;;;;;3.43;1.67;;;;;;;1.83;100.00;97796.07;3638467;79;44049;-18
2021/01/13 11:54:41;;;;;;;2.97;1.90;;;;;;;1.82;100.00;97792.55;3652725;80;43092;-18
2021/01/13 11:59:48;;;;;;;4.40;2.20;;;;;;;1.88;100.00;97801.88;3654230;79;44114;-18
2021/01/13 12:04:54;;;;;;;2.90;1.60;;;;;;;1.78;100.00;97786.28;3639765;80;43722;-18
2021/01/13 12:10:10;;;;;;;5.77;1.80;;;;;;;1.81;100.00;97801.98;3653436;81;43375;-18
2021/01/13 12:15:18;;;;;;;4.00;2.00;;;;;;;1.89;100.00;97772.16;3613109;81;44041;-18
2021/01/13 12:20:34;;;;;;;5.17;1.77;;;;;;;1.78;100.00;97765.89;3653605;81;43427;-18
2021/01/13 12:25:41;;;;;;;5.40;1.80;;;;;;;1.77;100.00;97771.31;3688665;80;44075;-17
2021/01/13 12:30:58;;;;;;;3.57;1.70;;;;;;;1.81;100.00;97755.03;3666167;80;43414;-18
2021/01/13 12:36:23;;;;;;;3.97;1.90;;;;;;;1.82;100.00;97753.21;3659846;81;43470;-18
2021/01/13 12:41:30;;;;;;;3.00;1.90;;;;;;;1.86;100.00;97746.70;3603018;82;43980;-18
2021/01/13 12:46:38;;;;;;;5.23;2.10;;;;;;;1.90;100.00;97735.33;3604903;81;43677;-18
2021/01/13 12:51:45;;;;;;;4.40;2.00;;;;;;;2.10;100.00;97721.27;3658292;81;43721;-18
2021/01/13 12:56:52;;;;;;;2.50;1.77;;;;;;;2.18;100.00;97734.41;3658594;80;43817;-18
2021/01/13 13:01:58;;;;;;;6.13;1.83;;;;;;;2.12;100.00;97753.02;3659270;81;44003;-18
2021/01/13 13:07:03;;;;;;;4.40;1.60;;;;;;;1.96;100.00;97738.34;3693964;80;44426;-18
2021/01/13 13:12:09;;;;;;;3.63;1.37;;;;;;;1.92;100.00;97715.64;3688658;80;43069;-18
2021/01/13 13:17:15;;;;;;;4.23;1.70;;;;;;;1.84;100.00;97711.44;3695005;80;44085;-18
2021/01/13 13:22:21;;;;;;;4.97;1.67;;;;;;;1.88;100.00;97706.72;3695272;80;43702;-18
2021/01/13 13:27:28;;;;;;;4.10;1.83;;;;;;;1.77;100.00;97705.78;3697244;79;44417;-18
2021/01/13 13:32:34;;;;;;;6.33;2.10;;;;;;;1.75;100.00;97708.20;3697271;79;44171;-17
2021/01/13 13:37:41;;;;;;;3.67;1.90;;;;;;;1.76;100.00;97696.12;3694054;80;43692;-18
2021/01/13 13:42:47;;;;;;;4.47;1.93;;;;;;;1.64;100.00;97697.10;3685930;79;43680;-18
2021/01/13 13:47:54;;;;;;;3.53;2.00;;;;;;;1.54;100.00;97693.86;3680380;80;43038;-18
2021/01/13 13:53:00;;;;;;;7.70;2.37;;;;;;;1.65;100.00;97686.84;3692736;80;44111;-18
2021/01/13 13:58:06;;;;;;;5.03;2.10;;;;;;;1.63;100.00;97710.02;3686532;80;44151;-18
2021/01/13 14:03:14;;;;;;;3.07;1.70;;;;;;;1.60;100.00;97702.28;3691955;79;42953;-18
2021/01/13 14:08:21;;;;;;;3.17;1.77;;;;;;;1.61;100.00;97688.05;3710901;80;43982;-18
2021/01/13 14:13:27;;;;;;;2.97;1.63;;;;;;;1.62;100.00;97692.39;3700460;80;44530;-18
2021/01/13 14:18:34;;;;;;;2.80;1.57;;;;;;;1.61;100.00;97690.70;3691455;80;43714;-17
2021/01/13 14:23:43;;;;;;;4.37;2.20;;;;;;;1.65;100.00;97687.67;3715898;80;44106;-18
2021/01/13 14:28:50;;;;;;;2.87;2.10;;;;;;;1.72;100.00;97687.20;3707645;80;43298;-17
2021/01/13 14:33:57;;;;;;;4.37;2.40;;;;;;;1.64;100.00;97674.53;3713994;79;44067;-18
2021/01/13 14:39:04;;;;;;;4.40;2.20;;;;;;;1.62;100.00;97668.03;3740098;79;43714;-18
2021/01/13 14:44:10;;;;;;;7.13;2.20;;;;;;;1.61;100.00;97673.45;3665020;80;43735;-18
2021/01/13 14:49:16;;;;;;;3.27;2.20;;;;;;;1.57;100.00;97658.75;3694145;80;44109;-18
2021/01/13 14:54:24;;;;;;;4.97;2.40;;;;;;;1.59;100.00;97650.19;3717216;80;43379;-18
2021/01/13 14:59:30;;;;;;;4.37;2.50;;;;;;;1.57;100.00;97644.98;3719511;80;44418;-18
2021/01/13 15:04:37;;;;;;;5.33;2.10;;;;;;;1.60;100.00;97646.53;3721915;79;43735;-18
2021/01/13 15:09:43;;;;;;;3.73;2.00;;;;;;;1.59;100.00;97626.30;3719549;80;44173;-18
2021/01/13 15:14:50;;;;;;;3.03;1.40;;;;;;;1.57;100.00;97599.85;3718351;80;43203;-18
2021/01/13 15:19:56;;;;;;;5.33;2.20;;;;;;;1.52;100.00;97630.75;3718306;79;43486;-18
2021/01/13 15:25:03;;;;;;;3.43;1.87;;;;;;;1.54;100.00;97626.17;3719316;80;43692;-18
2021/01/13 15:30:13;;;;;;;5.70;2.33;;;;;;;1.50;100.00;97602.16;3714771;80;43293;-18
2021/01/13 15:35:18;;;;;;;3.10;1.97;;;;;;;1.51;100.00;97600.36;3712749;80;44109;-19
2021/01/13 15:40:25;;;;;;;2.37;1.67;;;;;;;1.57;100.00;97587.08;3715465;79;44055;-19
2021/01/13 15:45:32;;;;;;;3.90;2.20;;;;;;;1.52;97.94;97585.63;3716662;80;44589;-18
2021/01/13 15:50:40;;;;;;;2.77;1.70;;;;;;;1.55;99.43;97576.56;3711257;80;43725;-18
2021/01/13 15:55:48;;;;;;;3.93;1.80;;;;;;;1.50;96.80;97588.05;3713428;80;43717;-18
2021/01/13 16:00:57;;;;;;;2.50;1.33;;;;;;;1.47;97.58;97560.42;3679281;78;43697;-19
2021/01/13 16:06:05;;;;;;;4.40;1.60;;;;;;;1.54;94.58;97546.53;3676401;80;43447;-18
2021/01/13 16:11:12;;;;;;;5.53;1.67;;;;;;;1.57;93.10;97545.43;3680859;80;44659;-19
2021/01/13 16:16:20;;;;;;;3.33;1.50;;;;;;;1.38;97.70;97510.27;3661464;81;43432;-17
2021/01/13 16:21:26;;;;;;;4.07;1.77;;;;;;;1.27;98.70;97504.99;3660011;80;43790;-18
2021/01/13 16:26:35;;;;;;;3.33;1.50;;;;;;;1.38;98.87;97496.52;3661123;81;44054;-19
2021/01/13 16:31:44;;;;;;;3.87;1.63;;;;;;;1.36;96.34;97496.27;3603169;82;43667;-19
2021/01/13 16:36:51;;;;;;;4.20;1.67;;;;;;;1.39;96.37;97527.88;3606642;81;43307;-19
2021/01/13 16:41:58;;;;;;;2.40;1.53;;;;;;;1.37;97.70;97500.61;3656778;80;43314;-18
2021/01/13 16:47:04;;;;;;;2.10;1.50;;;;;;;1.43;95.25;97501.45;3654892;80;43451;-18
2021/01/13 16:52:14;;;;;;;3.43;1.70;;;;;;;1.40;98.24;97491.08;3631204;81;43715;-17
2021/01/13 16:57:24;;;;;;;4.47;1.90;;;;;;;1.42;97.21;97478.53;3613156;81;44029;-18
2021/01/13 17:02:32;;;;;;;2.57;1.67;;;;;;;1.42;97.55;97471.89;3659094;80;43331;-18
2021/01/13 17:07:41;;;;;;;5.03;1.80;;;;;;;1.47;95.85;97468.36;3630342;80;43782;-18
2021/01/13 17:12:49;;;;;;;2.20;1.40;;;;;;;1.47;97.88;97467.03;3660791;80;44110;-17
2021/01/13 17:17:57;;;;;;;3.37;1.60;;;;;;;1.61;94.32;97461.06;3649542;81;44428;-18
2021/01/13 17:23:04;;;;;;;2.53;1.43;;;;;;;1.41;100.00;97448.15;3659478;81;44353;-17
2021/01/13 17:28:11;;;;;;;3.97;1.57;;;;;;;1.56;98.11;97441.54;3661435;81;43481;-18
2021/01/13 17:33:19;;;;;;;3.83;1.60;;;;;;;1.44;100.00;97431.48;3656873;81;43478;-17
2021/01/13 17:38:40;;;;;;;2.83;1.70;;;;;;;1.40;100.00;97431.87;3655247;81;44144;-18
2021/01/13 17:43:51;;;;;;;3.10;1.53;;;;;;;1.43;99.82;97425.81;3653535;81;43199;-18
2021/01/13 17:48:59;;;;;;;5.33;1.83;;;;;;;1.43;100.00;97429.80;3659291;80;43633;-18
2021/01/13 17:54:08;;;;;;;3.00;1.93;;;;;;;1.46;100.00;97414.95;3661628;80;43401;-18
2021/01/13 17:59:15;;;;;;;2.73;1.70;;;;;;;1.52;100.00;97402.97;3660525;81;44534;-18
2021/01/13 18:04:24;;;;;;;3.20;1.60;;;;;;;1.47;100.00;97395.87;3653826;81;44018;-18
2021/01/13 18:09:30;;;;;;;2.60;1.57;;;;;;;1.39;100.00;97389.88;3659022;80;43378;-18
2021/01/13 18:14:39;;;;;;;3.80;1.43;;;;;;;1.44;100.00;97386.36;3635000;81;44030;-17
2021/01/13 18:19:44;;;;;;;3.57;1.70;;;;;;;1.46;100.00;97364.52;3648850;81;44369;-19
2021/01/13 18:24:52;;;;;;;4.50;1.90;;;;;;;1.64;96.75;97376.71;3654349;81;43475;-18
2021/01/13 18:29:58;;;;;;;5.43;1.70;;;;;;;1.58;99.55;97370.58;3657916;80;43434;-18
2021/01/13 18:35:05;;;;;;;4.03;2.13;;;;;;;1.54;100.00;97354.08;3648071;80;44066;-17
2021/01/13 18:40:13;;;;;;;3.17;1.80;;;;;;;1.53;99.82;97365.67;3653065;80;44036;-17
2021/01/13 18:45:19;;;;;;;5.30;1.83;;;;;;;1.55;98.61;97336.33;3617823;80;43308;-17
2021/01/13 18:50:27;;;;;;;4.47;1.87;;;;;;;1.56;98.23;97338.02;3644454;80;44091;-17
2021/01/13 18:55:32;;;;;;;4.10;2.03;;;;;;;1.60;97.04;97312.89;3647777;81;43066;-17
2021/01/13 19:00:39;;;;;;;3.23;1.90;;;;;;;1.60;99.91;97302.75;3660295;79;43470;-17
2021/01/13 19:05:46;;;;;;;5.07;2.87;;;;;;;1.57;99.58;97322.94;3640049;78;43586;-17
2021/01/13 19:10:52;;;;;;;4.27;2.30;;;;;;;1.50;100.00;97324.78;3721138;78;44420;-17
2021/01/13 19:15:59;;;;;;;5.33;1.90;;;;;;;1.56;100.00;97311.97;3708439;78;43828;-17
2021/01/13 19:21:06;;;;;;;4.03;2.10;;;;;;;1.60;98.97;97309.38;3696515;78;44031;-17
2021/01/13 19:26:17;;;;;;;4.67;1.97;;;;;;;1.57;98.88;97308.34;3715863;80;43678;-17
2021/01/13 19:31:31;;;;;;;3.27;2.20;;;;;;;1.53;100.00;97301.96;3720142;78;43673;-17
2021/01/13 19:36:37;;;;;;;5.13;1.97;;;;;;;1.56;100.00;97284.09;3716523;80;44058;-17
2021/01/13 19:41:42;;;;;;;5.63;2.53;;;;;;;1.47;100.00;97312.27;3716250;78;44122;-17
2021/01/13 19:46:50;;;;;;;5.93;2.20;;;;;;;1.42;100.00;97279.48;3716543;80;44143;-18
2021/01/13 19:51:56;;;;;;;4.47;2.70;;;;;;;1.40;100.00;97293.37;3716879;80;44141;-17
2021/01/13 19:57:02;;;;;;;5.47;2.40;;;;;;;1.49;100.00;97267.86;3715651;78;44056;-17
2021/01/13 20:02:10;;;;;;;6.43;2.90;;;;;;;1.53;100.00;97262.15;3713132;79;43714;-17
2021/01/13 20:07:19;;;;;;;4.63;2.50;;;;;;;1.55;100.00;97263.33;3717693;78;44052;-17
2021/01/13 20:12:26;;;;;;;4.53;2.30;;;;;;;1.54;100.00;97254.54;3738905;78;44010;-17
2021/01/13 20:17:32;;;;;;;4.80;2.37;;;;;;;1.53;100.00;97260.82;3718325;78;43707;-18
2021/01/13 20:22:38;;;;;;;4.53;3.07;;;;;;;1.45;100.00;97251.84;3693967;78;44086;-18
2021/01/13 20:27:45;;;;;;;2.93;2.23;;;;;;;1.47;100.00;97248.06;3717454;78;43439;-18
2021/01/13 20:32:55;;;;;;;9.27;2.90;;;;;;;1.50;100.00;97243.83;3714983;78;43484;-18
2021/01/13 20:38:02;;;;;;;4.83;2.13;;;;;;;1.53;100.00;97224.98;3722977;78;43729;-18
2021/01/13 20:43:08;;;;;;;6.43;2.47;;;;;;;1.57;100.00;97263.22;3703046;80;43461;-18
2021/01/13 20:48:14;;;;;;;5.37;2.87;;;;;;;1.52;100.00;97268.43;3662297;80;44477;-18
2021/01/13 20:53:20;;;;;;;3.93;2.70;;;;;;;1.53;100.00;97282.05;3647631;80;43277;-18
2021/01/13 20:58:27;;;;;;;6.57;3.97;;;;;;;1.01;100.00;97324.48;3668355;80;44169;-18
2021/01/13 21:03:33;;;;;;;7.20;3.93;;;;;;;0.35;100.00;97344.47;3689482;78;44050;-17
2021/01/13 21:08:39;;;;;;;3.10;2.03;;;;;;;-0.09;100.00;97332.47;3694283;78;44034;-18
2021/01/13 21:13:47;;;;;;;3.03;1.17;;;;;;;-0.26;100.00;97341.74;3656513;79;43369;-17
2021/01/13 21:18:54;;;;;;;3.37;1.00;;;;;;;-0.37;100.00;97341.27;3640076;79;44367;-17
2021/01/13 21:23:59;;;;;;;2.23;0.70;;;;;;;-0.49;100.00;97365.54;3581560;81;43972;-17
2021/01/13 21:29:06;;;;;;;1.77;0.80;;;;;;;-0.54;100.00;97350.52;3615750;79;43348;-17
2021/01/13 21:34:13;;;;;;;2.77;1.20;;;;;;;-0.56;100.00;97340.53;3580694;83;44079;-17
2021/01/13 21:39:19;;;;;;;2.37;0.80;;;;;;;-0.53;100.00;97348.23;3623291;79;43681;-17
2021/01/13 21:44:25;;;;;;;3.07;0.90;;;;;;;-0.45;100.00;97363.03;3645144;81;44642;-18
2021/01/13 21:49:31;;;;;;;5.47;1.00;;;;;;;-0.36;100.00;97350.91;3646291;81;43126;-18
2021/01/13 21:54:38;;;;;;;3.20;1.00;;;;;;;-0.33;100.00;97351.50;3653480;80;44455;-18
2021/01/13 21:59:44;;;;;;;1.13;0.70;;;;;;;-0.01;100.00;97367.16;3653875;81;44037;-18
2021/01/13 22:04:50;;;;;;;3.60;0.97;;;;;;;-0.27;100.00;97356.80;3659065;81;43735;-18
2021/01/13 22:09:56;;;;;;;1.30;0.63;;;;;;;-0.32;100.00;97352.33;3688560;80;44099;-18
2021/01/13 22:15:03;;;;;;;4.23;0.70;;;;;;;-0.35;100.00;97354.73;3715688;78;43488;-17
2021/01/13 22:20:10;;;;;;;2.50;0.97;;;;;;;-0.21;100.00;97356.80;3715016;80;44095;-18
2021/01/13 22:25:17;;;;;;;2.10;0.80;;;;;;;-0.17;100.00;97364.37;3715158;78;43442;-18
2021/01/13 22:30:24;;;;;;;4.13;1.57;;;;;;;-0.29;100.00;97366.66;3714982;78;43380;-17
2021/01/13 22:35:30;;;;;;;3.33;1.07;;;;;;;-0.17;100.00;97380.26;3714711;79;43684;-18
2021/01/13 22:40:36;;;;;;;3.20;0.77;;;;;;;-0.24;100.00;97384.36;3716818;80;43031;-18
2021/01/13 22:45:42;;;;;;;1.67;1.10;;;;;;;-0.22;100.00;97402.26;3702115;78;44480;-17
2021/01/13 22:50:50;;;;;;;4.27;1.10;;;;;;;-0.25;100.00;97405.62;3706292;80;44432;-18
2021/01/13 22:55:57;;;;;;;5.03;1.10;;;;;;;-0.40;100.00;97403.20;3718489;80;44052;-17
2021/01/13 23:01:04;;;;;;;6.47;1.10;;;;;;;-0.32;100.00;97408.77;3686730;78;43318;-17
2021/01/13 23:06:11;;;;;;;1.97;0.80;;;;;;;-0.39;100.00;97401.41;3684825;80;44549;-17
2021/01/13 23:11:17;;;;;;;4.23;1.10;;;;;;;-0.47;100.00;97419.19;3714904;80;43701;-19
2021/01/13 23:16:24;;;;;;;3.13;1.00;;;;;;;-0.40;100.00;97422.21;3702688;78;44042;-18
2021/01/13 23:21:30;;;;;;;2.63;1.07;;;;;;;-0.44;100.00;97430.87;3687911;80;43388;-18
2021/01/13 23:26:36;;;;;;;2.53;1.10;;;;;;;-0.45;100.00;97429.18;3654156;80;43499;-19
2021/01/13 23:31:42;;;;;;;5.80;1.40;;;;;;;-0.49;100.00;97442.27;3650745;80;42924;-19
2021/01/13 23:36:49;;;;;;;3.33;0.90;;;;;;;-0.50;100.00;97437.93;3650775;80;44595;-19
2021/01/13 23:41:55;;;;;;;2.03;0.83;;;;;;;-0.52;100.00;97444.67;3712717;78;44531;-19
2021/01/13 23:47:02;;;;;;;3.30;0.83;;;;;;;-0.59;100.00;97435.52;3676518;80;44193;-19
2021/01/13 23:52:07;;;;;;;2.80;0.90;;;;;;;-0.57;100.00;97430.94;3715323;78;43422;-19
2021/01/13 23:57:14;;;;;;;2.07;0.80;;;;;;;-0.51;100.00;97431.81;3711119;80;43380;-19
